Time;durP1;ratioP1;P1;durP2;ratioP2;P2;SDS_P1;SDS_P2;PMS_P1;PMS_P2;Temp;Humidity;BMP_temperature;BMP_pressure;BME280_temperature;BME280_humidity;BME280_pressure;Samples;Min_cycle;Max_cycle;Signal;HPM_P1;HPM_P2
2022/10/03 00:01:50;;;;;;;9.95;5.55;;;;;;;-145.49;100.00;62790.56;4948811;28;20481;-75
2022/10/03 00:04:37;;;;;;;6.88;4.88;;;;;;;-145.49;100.00;62790.56;4947727;28;20043;-75
2022/10/03 00:07:06;;;;;;;;;;;;;;;-145.49;100.00;62790.56;4956598;28;20027;-74
2022/10/03 00:10:01;;;;;;;8.38;4.43;;;;;;;-145.49;100.00;62790.56;4962706;28;20303;-75
2022/10/03 00:13:01;;;;;;;8.18;5.70;;;;;;;-145.49;100.00;62790.56;4935845;28;20044;-74
2022/10/03 00:15:31;;;;;;;8.45;5.18;;;;;;;-145.49;100.00;62790.56;4953657;28;20040;-75
2022/10/03 00:18:02;;;;;;;20.23;7.15;;;;;;;-145.49;100.00;62790.56;4968993;28;20035;-75
2022/10/03 00:20:38;;;;;;;21.55;8.52;;;;;;;-145.49;100.00;62790.56;4954522;28;20516;-75
2022/10/03 00:23:10;;;;;;;;;;;;;;;-145.49;100.00;62790.56;4957499;28;20508;-75
2022/10/03 00:25:36;;;;;;;9.88;5.63;;;;;;;-145.49;100.00;62790.56;4960580;28;19915;-74
2022/10/03 00:28:08;;;;;;;10.35;6.72;;;;;;;-145.49;100.00;62790.56;4981312;28;20067;-75
2022/10/03 00:31:01;;;;;;;8.40;6.20;;;;;;;-145.49;100.00;62790.56;4962983;28;20061;-74
2022/10/03 00:33:54;;;;;;;7.82;7.03;;;;;;;-145.49;100.00;62790.56;4978322;28;20544;-74
2022/10/03 00:36:38;;;;;;;10.20;6.03;;;;;;;-145.49;100.00;62790.56;4960213;28;20054;-74
2022/10/03 00:39:33;;;;;;;9.85;7.50;;;;;;;-145.49;100.00;62790.56;4946194;28;20049;-74
2022/10/03 00:42:01;;;;;;;11.27;7.78;;;;;;;-145.49;100.00;62790.56;4952394;28;20048;-74
2022/10/03 00:45:01;;;;;;;17.83;8.70;;;;;;;-145.49;100.00;62790.56;4951684;28;20042;-74
2022/10/03 00:47:42;;;;;;;48.55;9.15;;;;;;;-145.49;100.00;62790.56;4952714;29;20051;-74
2022/10/03 00:50:13;;;;;;;12.32;6.57;;;;;;;-145.49;100.00;62790.56;4953473;28;20393;-74
2022/10/03 00:52:52;;;;;;;28.73;8.43;;;;;;;-145.49;100.00;62790.56;4952201;28;20031;-74
2022/10/03 00:55:38;;;;;;;7.15;5.60;;;;;;;-145.49;100.00;62790.56;4952268;28;20043;-74
2022/10/03 00:58:22;;;;;;;21.38;5.68;;;;;;;-145.49;100.00;62790.56;4961177;28;20045;-74
2022/10/03 01:00:56;;;;;;;9.38;7.00;;;;;;;-145.49;100.00;62790.56;4966439;28;20485;-75
2022/10/03 01:03:58;;;;;;;13.30;6.35;;;;;;;-145.49;100.00;62790.56;4972278;28;20035;-74
2022/10/03 01:06:39;;;;;;;9.75;7.78;;;;;;;-145.49;100.00;62790.56;4949912;28;20050;-74
2022/10/03 01:09:38;;;;;;;9.90;6.15;;;;;;;-145.49;100.00;62790.56;4953002;29;20043;-74
2022/10/03 01:12:31;;;;;;;10.98;7.50;;;;;;;-145.49;100.00;62790.56;4954727;29;20035;-74
2022/10/03 01:15:14;;;;;;;20.67;8.32;;;;;;;-145.49;100.00;62790.56;4953175;28;20046;-74
2022/10/03 01:18:01;;;;;;;20.02;7.78;;;;;;;-145.49;100.00;62790.56;4970733;28;20043;-75
2022/10/03 01:20:38;;;;;;;24.83;8.07;;;;;;;-145.49;100.00;62790.56;4955605;28;20058;-74
2022/10/03 01:23:34;;;;;;;14.60;8.18;;;;;;;-145.49;100.00;62790.56;4950587;28;20039;-75
2022/10/03 01:26:26;;;;;;;63.97;10.27;;;;;;;-145.49;100.00;62790.56;4955860;28;20051;-74
2022/10/03 01:32:42;;;;;;;32.95;9.73;;;;;;;-145.49;100.00;62790.56;4961012;28;20046;-74
2022/10/03 01:35:52;;;;;;;39.47;8.18;;;;;;;-145.49;100.00;62790.56;4970386;28;20355;-74
2022/10/03 01:38:35;;;;;;;16.13;8.50;;;;;;;-145.49;100.00;62790.56;4949718;28;20046;-74
2022/10/03 01:41:22;;;;;;;10.95;7.75;;;;;;;-145.49;100.00;62790.56;4960257;28;20051;-74
2022/10/03 01:43:55;;;;;;;6.78;5.05;;;;;;;-145.49;100.00;62790.56;4963453;28;20057;-74
2022/10/03 01:46:40;;;;;;;23.33;8.13;;;;;;;-145.49;100.00;62790.56;4964283;28;20046;-74
2022/10/03 01:49:28;;;;;;;11.35;5.95;;;;;;;-145.49;100.00;62790.56;4955223;28;20036;-74
2022/10/03 01:52:05;;;;;;;9.20;6.40;;;;;;;-145.49;100.00;62790.56;4974315;28;20046;-74
2022/10/03 01:54:39;;;;;;;8.15;5.95;;;;;;;-145.49;100.00;62790.56;4954289;28;20039;-74
2022/10/03 01:57:34;;;;;;;10.27;6.70;;;;;;;-145.49;100.00;62790.56;4948594;28;20112;-74
2022/10/03 02:00:11;;;;;;;10.05;5.78;;;;;;;-145.49;100.00;62790.56;4962537;28;20050;-74
2022/10/03 02:02:52;;;;;;;13.73;7.70;;;;;;;-145.49;100.00;62790.56;4965398;28;20046;-74
2022/10/03 02:05:46;;;;;;;18.45;6.55;;;;;;;-145.49;100.00;62790.56;4953195;28;20035;-74
2022/10/03 02:08:13;;;;;;;16.13;7.68;;;;;;;-145.49;100.00;62790.56;4965365;28;20107;-74
2022/10/03 02:11:01;;;;;;;36.75;7.93;;;;;;;-145.49;100.00;62790.56;4955262;29;20098;-74
2022/10/03 02:13:46;;;;;;;17.92;8.18;;;;;;;-145.49;100.00;62790.56;4970959;28;20051;-74
2022/10/03 02:16:37;;;;;;;7.07;5.55;;;;;;;-145.49;100.00;62790.56;4954528;28;20374;-74
2022/10/03 02:19:17;;;;;;;50.20;7.50;;;;;;;-145.49;100.00;62790.56;4954650;28;20062;-74
2022/10/03 02:21:47;;;;;;;29.70;7.25;;;;;;;-145.49;100.00;62790.56;4953963;29;20035;-74
2022/10/03 02:24:13;;;;;;;20.05;6.82;;;;;;;-145.49;100.00;62790.56;4959635;28;20393;-74
2022/10/03 02:27:06;;;;;;;25.33;6.80;;;;;;;-145.49;100.00;62790.56;4953655;28;20047;-74
2022/10/03 02:29:43;;;;;;;26.37;8.93;;;;;;;-145.49;100.00;62790.56;4976340;28;20050;-74
2022/10/03 02:32:27;;;;;;;49.47;9.68;;;;;;;-145.49;100.00;62790.56;4957662;28;20298;-75
2022/10/03 02:35:22;;;;;;;13.85;6.63;;;;;;;-145.49;100.00;62790.56;4961054;28;20038;-74
2022/10/03 02:37:56;;;;;;;28.80;8.73;;;;;;;-145.49;100.00;62790.56;4952069;28;20417;-75
2022/10/03 02:40:50;;;;;;;37.58;7.97;;;;;;;-145.49;100.00;62790.56;4950260;28;20039;-74
2022/10/03 02:43:42;;;;;;;19.92;6.93;;;;;;;-145.49;100.00;62790.56;4952827;28;20050;-74
2022/10/03 02:46:16;;;;;;;56.80;10.43;;;;;;;-145.49;100.00;62790.56;4924214;28;20489;-74
2022/10/03 02:49:27;;;;;;;29.77;9.68;;;;;;;-145.49;100.00;62790.56;4950970;28;20042;-74
2022/10/03 02:52:28;;;;;;;15.27;7.57;;;;;;;-145.49;100.00;62790.56;4956790;28;20473;-74
2022/10/03 02:55:26;;;;;;;12.95;8.50;;;;;;;-145.49;100.00;62790.56;4962077;28;20053;-74
2022/10/03 02:58:11;;;;;;;13.10;7.18;;;;;;;-145.49;100.00;62790.56;4940317;28;20054;-74
2022/10/03 03:01:17;;;;;;;109.95;16.27;;;;;;;-145.49;100.00;62790.56;4958314;28;20050;-74
2022/10/03 03:04:18;;;;;;;152.98;19.23;;;;;;;-145.49;100.00;62790.56;4956649;28;20036;-74
2022/10/03 03:07:28;;;;;;;63.35;10.85;;;;;;;-145.49;100.00;62790.56;4969242;28;20079;-74
2022/10/03 03:10:28;;;;;;;47.92;10.88;;;;;;;-145.49;100.00;62790.56;4938701;28;20050;-74
2022/10/03 03:13:35;;;;;;;35.90;8.30;;;;;;;-145.49;100.00;62790.56;4970560;28;20254;-74
2022/10/03 03:16:39;;;;;;;108.43;14.43;;;;;;;-145.49;100.00;62790.56;4973396;28;20092;-74
2022/10/03 03:19:17;;;;;;;76.40;12.52;;;;;;;-145.49;100.00;62790.56;4952157;28;20125;-74
2022/10/03 03:22:02;;;;;;;90.32;12.20;;;;;;;-145.49;100.00;62790.56;4952560;29;20038;-75
2022/10/03 03:25:13;;;;;;;89.05;10.50;;;;;;;-145.49;100.00;62790.56;4961376;28;20529;-75
2022/10/03 03:28:13;;;;;;;93.88;13.30;;;;;;;-145.49;100.00;62790.56;4924693;28;20051;-75
2022/10/03 03:31:28;;;;;;;116.10;14.30;;;;;;;-145.49;100.00;62790.56;4959732;28;20043;-75
2022/10/03 03:34:01;;;;;;;106.28;12.52;;;;;;;-145.49;100.00;62790.56;4925894;29;20058;-75
2022/10/03 03:36:27;;;;;;;53.90;8.88;;;;;;;-145.49;100.00;62790.56;4958623;28;20055;-75
2022/10/03 03:38:53;;;;;;;68.88;9.50;;;;;;;-145.49;100.00;62790.56;4952564;28;20039;-74
2022/10/03 03:41:37;;;;;;;40.50;8.38;;;;;;;-145.49;100.00;62790.56;4950586;28;20043;-74
2022/10/03 03:44:25;;;;;;;73.47;10.75;;;;;;;-145.49;100.00;62790.56;4951655;28;20035;-75
2022/10/03 03:47:07;;;;;;;51.67;9.48;;;;;;;-145.49;100.00;62790.56;4959625;28;20035;-73
2022/10/03 03:49:48;;;;;;;41.60;7.95;;;;;;;-145.49;100.00;62790.56;4966664;28;20031;-74
2022/10/03 03:52:46;;;;;;;45.90;9.65;;;;;;;-145.49;100.00;62790.56;4959135;28;20046;-73
2022/10/03 03:55:37;;;;;;;48.72;8.93;;;;;;;-145.49;100.00;62790.56;4955570;28;20039;-73
2022/10/03 03:58:19;;;;;;;45.15;10.77;;;;;;;-145.49;100.00;62790.56;4951713;28;20394;-74
2022/10/03 04:00:55;;;;;;;51.72;8.25;;;;;;;-145.49;100.00;62790.56;4952717;28;20047;-74
2022/10/03 04:03:42;;;;;;;53.80;10.20;;;;;;;-145.49;100.00;62790.56;4952219;28;20047;-74
2022/10/03 04:06:18;;;;;;;96.82;8.68;;;;;;;-145.49;100.00;62790.56;4954667;28;20401;-75
2022/10/03 04:09:33;;;;;;;44.03;6.63;;;;;;;-145.49;100.00;62790.56;4956260;28;20066;-74
2022/10/03 04:12:14;;;;;;;49.05;7.53;;;;;;;-145.49;100.00;62790.56;4924119;28;20409;-74
2022/10/03 04:15:20;;;;;;;23.88;7.30;;;;;;;-145.49;100.00;62790.56;4979004;28;20404;-73
2022/10/03 04:21:18;;;;;;;71.50;11.43;;;;;;;-145.49;100.00;62790.56;4949630;28;20043;-74
2022/10/03 04:23:59;;;;;;;101.25;13.52;;;;;;;-145.49;100.00;62790.56;4953127;28;20036;-74
2022/10/03 04:27:03;;;;;;;70.47;11.02;;;;;;;-145.49;100.00;62790.56;4959893;28;20436;-75
2022/10/03 04:29:46;;;;;;;18.45;5.22;;;;;;;-145.49;100.00;62790.56;4957642;28;20031;-74
2022/10/03 04:32:56;;;;;;;24.00;6.22;;;;;;;-145.49;100.00;62790.56;4961002;28;20402;-74
2022/10/03 04:35:46;;;;;;;61.35;8.55;;;;;;;-145.49;100.00;62790.56;4956194;28;20046;-74
2022/10/03 04:38:35;;;;;;;26.05;6.38;;;;;;;-145.49;100.00;62790.56;4946579;29;20045;-74
2022/10/03 04:41:34;;;;;;;39.25;7.43;;;;;;;-145.49;100.00;62790.56;4954396;28;20043;-75
2022/10/03 04:44:32;;;;;;;66.50;11.00;;;;;;;-145.49;100.00;62790.56;4954584;28;20108;-74
2022/10/03 04:47:20;;;;;;;61.72;10.18;;;;;;;-145.49;100.00;62790.56;4964402;28;20039;-74
2022/10/03 04:49:55;;;;;;;50.13;8.50;;;;;;;-145.49;100.00;62790.56;4959652;28;20039;-74
2022/10/03 04:52:32;;;;;;;95.20;9.60;;;;;;;-145.49;100.00;62790.56;4957251;28;20039;-74
2022/10/03 04:55:28;;;;;;;97.75;11.93;;;;;;;-145.49;100.00;62790.56;4956206;28;20039;-74
2022/10/03 04:58:13;;;;;;;114.72;11.43;;;;;;;-145.49;100.00;62790.56;4964381;28;20047;-74
2022/10/03 05:01:07;;;;;;;69.20;7.95;;;;;;;-145.49;100.00;62790.56;4954380;28;20042;-73
2022/10/03 05:03:47;;;;;;;174.25;18.52;;;;;;;-145.49;100.00;62790.56;4952531;28;20039;-74
2022/10/03 05:06:35;;;;;;;149.05;18.85;;;;;;;-145.49;100.00;62790.56;4954210;28;20519;-74
2022/10/03 05:09:13;;;;;;;150.07;16.67;;;;;;;-145.49;100.00;62790.56;4946495;28;20053;-74
2022/10/03 05:12:01;;;;;;;141.25;15.82;;;;;;;-145.49;100.00;62790.56;4958940;28;20046;-74
2022/10/03 05:15:13;;;;;;;249.10;25.73;;;;;;;-145.49;100.00;62790.56;4969645;28;20039;-74
2022/10/03 05:18:03;;;;;;;160.40;19.63;;;;;;;-145.49;100.00;62790.56;4977713;28;20490;-74
2022/10/03 05:20:57;;;;;;;247.13;22.75;;;;;;;-145.49;100.00;62790.56;4962530;28;20047;-74
2022/10/03 05:23:46;;;;;;;83.05;12.32;;;;;;;-145.49;100.00;62790.56;4938670;29;20050;-74
2022/10/03 05:26:30;;;;;;;151.07;16.98;;;;;;;-145.49;100.00;62790.56;4960964;28;20035;-74
2022/10/03 05:29:01;;;;;;;;;;;;;;;-145.49;100.00;62790.56;4984981;23;20039;-81
2022/10/03 05:32:11;;;;;;;64.55;11.20;;;;;;;-145.49;100.00;62790.56;4972578;28;19929;-82
2022/10/03 05:35:04;;;;;;;26.70;7.97;;;;;;;-145.49;100.00;62790.56;4972118;28;20392;-84
2022/10/03 05:37:57;;;;;;;45.70;9.48;;;;;;;-145.49;100.00;62790.56;4973628;28;20041;-83
2022/10/03 05:40:27;;;;;;;48.95;9.07;;;;;;;-145.49;100.00;62790.56;4985464;28;20047;-82
2022/10/03 05:43:05;;;;;;;70.07;11.98;;;;;;;-145.49;100.00;62790.56;4975083;28;20050;-82
2022/10/03 05:45:48;;;;;;;101.35;14.30;;;;;;;-145.49;100.00;62790.56;4971519;28;20053;-82
2022/10/03 05:48:20;;;;;;;25.60;8.10;;;;;;;-145.49;100.00;62790.56;4972578;28;20047;-82
2022/10/03 05:50:56;;;;;;;103.50;15.70;;;;;;;-145.49;100.00;62790.56;4991934;28;20043;-82
2022/10/03 05:53:48;;;;;;;100.88;13.45;;;;;;;-145.49;100.00;62790.56;4994119;28;20049;-82
2022/10/03 05:56:27;;;;;;;48.63;8.77;;;;;;;-145.49;100.00;62790.56;4973464;28;20035;-82
2022/10/03 05:59:12;;;;;;;85.50;13.35;;;;;;;-145.49;100.00;62790.56;4976604;28;20035;-82
2022/10/03 06:01:57;;;;;;;69.03;11.00;;;;;;;-145.49;100.00;62790.56;4987838;28;20045;-82
2022/10/03 06:04:39;;;;;;;46.25;9.57;;;;;;;-145.49;100.00;62790.56;4980381;28;20292;-82
2022/10/03 06:07:17;;;;;;;110.00;13.38;;;;;;;-145.49;100.00;62790.56;4991460;28;20030;-82
2022/10/03 06:10:01;;;;;;;76.32;14.20;;;;;;;-145.49;100.00;62790.56;4974714;28;20034;-82
2022/10/03 06:12:41;;;;;;;117.32;15.50;;;;;;;-145.49;100.00;62790.56;4957341;28;20048;-83
2022/10/03 06:15:54;;;;;;;36.75;6.93;;;;;;;-145.49;100.00;62790.56;4984324;28;20038;-81
2022/10/03 06:18:45;;;;;;;50.38;9.90;;;;;;;-145.49;100.00;62790.56;4973974;28;20066;-82
2022/10/03 06:21:42;;;;;;;47.80;8.18;;;;;;;-145.49;100.00;62790.56;4972958;28;20030;-82
2022/10/03 06:24:40;;;;;;;24.63;5.43;;;;;;;-145.49;100.00;62790.56;4958435;28;20051;-81
2022/10/03 06:27:51;;;;;;;46.45;7.50;;;;;;;-145.49;100.00;62790.56;4969634;28;20050;-81
2022/10/03 06:30:40;;;;;;;66.72;8.68;;;;;;;-145.49;100.00;62790.56;4988143;28;20103;-81
2022/10/03 06:33:14;;;;;;;74.38;11.88;;;;;;;-145.49;100.00;62790.56;4973857;28;20034;-81
2022/10/03 06:36:05;;;;;;;33.38;6.47;;;;;;;-145.49;100.00;62790.56;4970834;28;20038;-81
2022/10/03 06:38:35;;;;;;;19.75;7.32;;;;;;;-145.49;100.00;62790.56;4972202;28;20519;-82
2022/10/03 06:41:46;;;;;;;16.27;8.23;;;;;;;-145.49;100.00;62790.56;4958498;28;20043;-82
2022/10/03 06:44:22;;;;;;;15.20;7.15;;;;;;;-145.49;100.00;62790.56;4972158;28;20042;-82
2022/10/03 06:47:13;;;;;;;15.50;10.15;;;;;;;-145.49;100.00;62790.56;4976364;28;20565;-82
2022/10/03 06:49:57;;;;;;;16.80;6.43;;;;;;;-145.49;100.00;62790.56;4971516;28;20042;-82
2022/10/03 06:52:49;;;;;;;17.85;6.55;;;;;;;-145.49;100.00;62790.56;4974074;28;20038;-82
2022/10/03 06:55:20;;;;;;;16.80;7.97;;;;;;;-145.49;100.00;62790.56;4974526;28;20397;-82
2022/10/03 06:57:54;;;;;;;;;;;;;;;-145.49;100.00;62790.56;4983852;28;20039;-82
2022/10/03 07:00:46;;;;;;;13.45;7.15;;;;;;;-145.49;100.00;62790.56;4969207;28;19920;-82
2022/10/03 07:03:55;;;;;;;27.20;6.78;;;;;;;-145.49;100.00;62790.56;4973489;28;20046;-82
2022/10/03 07:06:50;;;;;;;38.30;14.00;;;;;;;-145.49;100.00;62790.56;4981115;28;20041;-82
2022/10/03 07:09:44;;;;;;;19.27;6.40;;;;;;;-145.49;100.00;62790.56;4974248;28;20370;-82
2022/10/03 07:12:24;;;;;;;;;;;;;;;-145.49;100.00;62790.56;4971838;28;20059;-82
2022/10/03 07:15:07;;;;;;;12.93;7.40;;;;;;;-145.49;100.00;62790.56;4970467;28;19914;-83
2022/10/03 07:18:07;;;;;;;10.40;6.78;;;;;;;-145.49;100.00;62790.56;4968367;28;20373;-82
2022/10/03 07:21:10;;;;;;;5.07;4.22;;;;;;;-145.49;100.00;62790.56;4982227;28;20047;-83
2022/10/03 07:23:51;;;;;;;7.10;5.50;;;;;;;-145.49;100.00;62790.56;4973009;28;20034;-82
2022/10/03 07:26:39;;;;;;;5.75;4.88;;;;;;;-145.49;100.00;62790.56;4976439;28;20041;-82
2022/10/03 07:29:41;;;;;;;8.63;6.13;;;;;;;-145.49;100.00;62790.56;4973054;28;20507;-83
2022/10/03 07:32:12;;;;;;;8.23;6.63;;;;;;;-145.49;100.00;62790.56;4971343;28;20483;-84
2022/10/03 07:35:04;;;;;;;7.25;6.20;;;;;;;-145.49;100.00;62790.56;4969498;28;20411;-83
2022/10/03 07:40:57;;;;;;;8.43;5.55;;;;;;;-145.49;100.00;62790.56;4994709;28;20023;-83
2022/10/03 07:43:36;;;;;;;11.85;6.50;;;;;;;-145.49;100.00;62790.56;4988599;28;20034;-82
2022/10/03 07:46:23;;;;;;;9.60;5.75;;;;;;;-145.49;100.00;62790.56;4972839;28;20035;-83
2022/10/03 07:49:01;;;;;;;12.75;6.50;;;;;;;-145.49;100.00;62790.56;4968750;28;20050;-82
2022/10/03 07:51:53;;;;;;;6.95;5.28;;;;;;;-145.49;100.00;62790.56;4968902;28;20042;-83
2022/10/03 07:55:19;;;;;;;8.00;6.22;;;;;;;-145.49;100.00;62790.56;4966840;28;20046;-82
2022/10/03 07:58:32;;;;;;;9.70;6.07;;;;;;;-145.49;100.00;62790.56;4908277;29;20047;-82
2022/10/03 08:01:01;;;;;;;16.45;9.27;;;;;;;-145.49;100.00;62790.56;4915153;29;20040;-82
2022/10/03 08:03:50;;;;;;;24.67;8.93;;;;;;;-145.49;100.00;62790.56;4989047;28;20065;-82
2022/10/03 08:06:19;;;;;;;16.40;8.65;;;;;;;-145.49;100.00;62790.56;4984185;28;20035;-82
2022/10/03 08:09:03;;;;;;;25.25;8.38;;;;;;;-145.49;100.00;62790.56;4974429;28;20042;-82
2022/10/03 08:11:50;;;;;;;15.65;7.90;;;;;;;-145.49;100.00;62790.56;4973938;28;20411;-83
2022/10/03 08:14:56;;;;;;;50.85;9.45;;;;;;;-145.49;100.00;62790.56;4985646;28;20030;-83
2022/10/03 08:17:47;;;;;;;36.85;9.73;;;;;;;-145.49;100.00;62790.56;4987468;28;20053;-82
2022/10/03 08:20:39;;;;;;;39.05;10.50;;;;;;;-145.49;100.00;62790.56;4991500;28;20035;-83
2022/10/03 08:23:32;;;;;;;13.70;8.43;;;;;;;-145.49;100.00;62790.56;4981381;28;20503;-82
2022/10/03 08:26:17;;;;;;;14.40;9.23;;;;;;;-145.49;100.00;62790.56;4987362;28;20049;-82
2022/10/03 08:28:57;;;;;;;12.48;8.75;;;;;;;-145.49;100.00;62790.56;4969333;28;20057;-82
2022/10/03 08:32:03;;;;;;;13.75;8.68;;;;;;;-145.49;100.00;62790.56;4989717;28;20038;-83
2022/10/03 08:35:06;;;;;;;17.13;10.23;;;;;;;-145.49;100.00;62790.56;4975459;28;20058;-83
2022/10/03 08:38:16;;;;;;;11.68;9.48;;;;;;;-145.49;100.00;62790.56;4981376;28;20035;-83
2022/10/03 08:41:04;;;;;;;12.30;8.60;;;;;;;-145.49;100.00;62790.56;4975108;28;20047;-79
2022/10/03 08:44:01;;;;;;;11.65;8.63;;;;;;;-145.49;100.00;62790.56;4972877;28;20049;-85
2022/10/03 08:46:49;;;;;;;13.38;10.73;;;;;;;-145.49;100.00;62790.56;4969252;28;20045;-85
2022/10/03 08:49:54;;;;;;;14.23;9.50;;;;;;;-145.49;100.00;62790.56;4989471;28;20047;-85
2022/10/03 08:52:49;;;;;;;12.65;7.95;;;;;;;-145.49;100.00;62790.56;4972557;28;20057;-85
2022/10/03 08:55:27;;;;;;;11.50;7.00;;;;;;;-145.49;100.00;62790.56;4957267;28;20054;-84
2022/10/03 08:58:36;;;;;;;14.13;8.82;;;;;;;-145.49;100.00;62790.56;4966586;28;20035;-84
2022/10/03 09:01:19;;;;;;;11.77;7.93;;;;;;;-145.49;100.00;62790.56;4988586;28;20034;-84
2022/10/03 09:04:16;;;;;;;20.10;7.60;;;;;;;-145.49;100.00;62790.56;4983652;28;20034;-84
2022/10/03 09:07:09;;;;;;;15.45;7.70;;;;;;;-145.49;100.00;62790.56;4982733;28;20053;-84
2022/10/03 09:09:47;;;;;;;7.78;6.97;;;;;;;-145.49;100.00;62790.56;4974236;28;20034;-84
2022/10/03 09:12:29;;;;;;;8.73;5.47;;;;;;;-145.49;100.00;62790.56;4983988;28;20058;-84
2022/10/03 09:15:13;;;;;;;11.98;8.10;;;;;;;-145.49;100.00;62790.56;4976725;28;20053;-84
2022/10/03 09:18:04;;;;;;;14.93;7.22;;;;;;;-145.49;100.00;62790.56;4981537;28;20334;-83
2022/10/03 09:21:14;;;;;;;11.60;8.65;;;;;;;-145.49;100.00;62790.56;4982587;28;20053;-84
2022/10/03 09:24:24;;;;;;;8.07;6.13;;;;;;;-145.49;100.00;62790.56;4983277;28;20042;-84
2022/10/03 09:27:11;;;;;;;8.57;5.93;;;;;;;-145.49;100.00;62790.56;4971907;28;20481;-84
2022/10/03 09:29:58;;;;;;;11.88;5.57;;;;;;;-145.49;100.00;62790.56;4980294;28;20038;-84
2022/10/03 09:32:32;;;;;;;9.35;6.45;;;;;;;-145.49;100.00;62790.56;4971949;28;20034;-84
2022/10/03 09:35:26;;;;;;;14.23;6.93;;;;;;;-145.49;100.00;62790.56;4977833;28;20042;-84
2022/10/03 09:38:26;;;;;;;8.05;6.13;;;;;;;-145.49;100.00;62790.56;4983145;28;20042;-84
2022/10/03 09:41:14;;;;;;;8.30;5.57;;;;;;;-145.49;100.00;62790.56;4957579;28;20038;-83
2022/10/03 09:43:50;;;;;;;15.63;7.60;;;;;;;-145.49;100.00;62790.56;4988758;28;20034;-84
2022/10/03 09:46:18;;;;;;;10.57;5.15;;;;;;;-145.49;100.00;62790.56;4986406;28;20057;-84
2022/10/03 09:49:24;;;;;;;9.70;5.63;;;;;;;-145.49;100.00;62790.56;4992078;28;20053;-84
2022/10/03 09:52:04;;;;;;;8.70;4.80;;;;;;;-145.49;100.00;62790.56;4983030;28;20496;-84
2022/10/03 09:54:42;;;;;;;8.30;5.55;;;;;;;-145.49;100.00;62790.56;4989976;28;20065;-83
2022/10/03 09:57:41;;;;;;;8.13;4.60;;;;;;;-145.49;100.00;62790.56;4974117;28;20043;-84
2022/10/03 10:00:20;;;;;;;6.78;5.22;;;;;;;-145.49;100.00;62790.56;4963061;28;20056;-84
2022/10/03 10:02:59;;;;;;;5.72;3.50;;;;;;;-145.49;100.00;62790.56;4974867;28;20042;-84
2022/10/03 10:05:34;;;;;;;7.38;3.60;;;;;;;-145.49;100.00;62790.56;4991617;28;20042;-84
2022/10/03 10:08:22;;;;;;;6.18;4.50;;;;;;;-145.49;100.00;62790.56;4989817;28;20041;-84
2022/10/03 10:11:06;;;;;;;11.05;6.55;;;;;;;-145.49;100.00;62790.56;4975979;28;20050;-84
2022/10/03 10:13:45;;;;;;;11.02;4.47;;;;;;;-145.49;100.00;62790.56;4975428;28;20042;-85
2022/10/03 10:16:30;;;;;;;7.70;4.32;;;;;;;-145.49;100.00;62790.56;4968971;28;20042;-85
2022/10/03 10:19:39;;;;;;;8.48;7.30;;;;;;;-145.49;100.00;62790.56;4995414;28;20050;-85
2022/10/03 10:22:29;;;;;;;10.32;4.30;;;;;;;-145.49;100.00;62790.56;4976867;28;20035;-85
2022/10/03 10:25:06;;;;;;;7.03;4.13;;;;;;;-145.49;100.00;62790.56;4978867;28;20435;-86
2022/10/03 10:27:38;;;;;;;13.35;5.15;;;;;;;-145.49;100.00;62790.56;4982851;28;20043;-85
2022/10/03 10:31:01;;;;;;;6.18;3.72;;;;;;;-145.49;100.00;62790.56;4994616;28;20035;-85
2022/10/03 10:33:48;;;;;;;6.85;3.95;;;;;;;-145.49;100.00;62790.56;4947896;28;20059;-84
2022/10/03 10:37:07;;;;;;;6.75;3.75;;;;;;;-145.49;100.00;62790.56;4967188;28;20051;-83
2022/10/03 10:40:04;;;;;;;6.93;3.25;;;;;;;-145.49;100.00;62790.56;4975749;28;20509;-83
2022/10/03 10:42:49;;;;;;;5.55;3.60;;;;;;;-145.49;100.00;62790.56;4970383;28;20496;-84
2022/10/03 10:45:34;;;;;;;4.30;3.38;;;;;;;-145.49;100.00;62790.56;4967515;28;20043;-84
2022/10/03 10:48:40;;;;;;;5.50;3.90;;;;;;;-145.49;100.00;62790.56;4971940;28;20039;-85
2022/10/03 10:51:48;;;;;;;11.60;5.00;;;;;;;-145.49;100.00;62790.56;4976168;28;20392;-86
2022/10/03 10:54:17;;;;;;;5.38;3.65;;;;;;;-145.49;100.00;62790.56;4969184;28;20034;-85
2022/10/03 10:57:13;;;;;;;6.72;2.90;;;;;;;-145.49;100.00;62790.56;4979376;28;20518;-85
2022/10/03 11:00:16;;;;;;;9.40;3.40;;;;;;;-145.49;100.00;62790.56;4950307;28;20046;-85
2022/10/03 11:03:21;;;;;;;5.75;3.60;;;;;;;-145.49;100.00;62790.56;4980202;28;20034;-85
2022/10/03 11:06:28;;;;;;;4.90;3.35;;;;;;;-145.49;100.00;62790.56;4972708;28;20041;-85
2022/10/03 11:08:55;;;;;;;5.68;4.47;;;;;;;-145.49;100.00;62790.56;4982464;28;20046;-81
2022/10/03 11:11:59;;;;;;;5.30;3.63;;;;;;;-145.49;100.00;62790.56;4982172;28;20041;-85
2022/10/03 11:14:46;;;;;;;4.93;3.25;;;;;;;-145.49;100.00;62790.56;4983925;28;20042;-87
2022/10/03 11:17:21;;;;;;;9.40;3.35;;;;;;;-145.49;100.00;62790.56;4974280;28;20029;-85
2022/10/03 11:19:56;;;;;;;5.85;3.03;;;;;;;-145.49;100.00;62790.56;4980741;28;20045;-79
2022/10/03 11:22:44;;;;;;;5.03;3.13;;;;;;;-145.49;100.00;62790.56;4985378;28;20742;-78
2022/10/03 11:25:39;;;;;;;4.90;3.25;;;;;;;-145.49;100.00;62790.56;4983074;28;20046;-82
2022/10/03 11:28:26;;;;;;;3.50;2.45;;;;;;;-145.49;100.00;62790.56;4981507;23;20500;-73
2022/10/03 11:31:01;;;;;;;5.63;3.00;;;;;;;-145.49;100.00;62790.56;4960783;28;20049;-74
2022/10/03 11:34:06;;;;;;;3.92;2.58;;;;;;;-145.49;100.00;62790.56;4971804;28;20034;-74
2022/10/03 11:36:42;;;;;;;5.53;3.83;;;;;;;-145.49;100.00;62790.56;4962818;28;20039;-73
2022/10/03 11:39:36;;;;;;;5.97;3.65;;;;;;;-145.49;100.00;62790.56;4970960;28;20377;-74
2022/10/03 11:42:23;;;;;;;4.93;2.90;;;;;;;-145.49;100.00;62790.56;4954213;29;20039;-74
2022/10/03 11:45:05;;;;;;;5.95;3.15;;;;;;;-145.49;100.00;62790.56;4952449;29;20047;-73
2022/10/03 11:47:53;;;;;;;6.65;2.80;;;;;;;-145.49;100.00;62790.56;4946674;28;20521;-74
2022/10/03 11:50:31;;;;;;;5.80;2.22;;;;;;;-145.49;100.00;62790.56;4976038;28;20039;-74
2022/10/03 11:53:15;;;;;;;5.32;3.13;;;;;;;-145.49;100.00;62790.56;4953711;29;20485;-74
2022/10/03 11:55:50;;;;;;;3.95;3.40;;;;;;;-145.49;100.00;62790.56;4952415;28;20031;-74
2022/10/03 11:58:49;;;;;;;8.30;3.63;;;;;;;-145.49;100.00;62790.56;4970423;28;20147;-74
2022/10/03 12:01:38;;;;;;;5.53;3.10;;;;;;;-145.49;100.00;62790.56;4976079;28;20051;-74
2022/10/03 12:04:22;;;;;;;4.22;2.83;;;;;;;-145.49;100.00;62790.56;4953731;29;20486;-74
2022/10/03 12:10:09;;;;;;;4.97;2.65;;;;;;;-145.49;100.00;62790.56;4970873;28;20038;-74
2022/10/03 12:12:59;;;;;;;6.03;3.40;;;;;;;-145.49;100.00;62790.56;4974766;28;20050;-74
2022/10/03 12:15:45;;;;;;;7.60;3.58;;;;;;;-145.49;100.00;62790.56;4972697;28;20049;-73
2022/10/03 12:18:17;;;;;;;;;;;;;;;-145.49;100.00;62790.56;4971788;28;20058;-74
2022/10/03 12:21:06;;;;;;;8.60;3.13;;;;;;;-145.49;100.00;62790.56;4971580;28;19914;-74
2022/10/03 12:24:09;;;;;;;12.30;3.97;;;;;;;-145.49;100.00;62790.56;4976209;28;20050;-74
2022/10/03 12:26:54;;;;;;;7.25;3.13;;;;;;;-145.49;100.00;62790.56;4971499;28;20493;-74
2022/10/03 12:29:25;;;;;;;5.32;3.13;;;;;;;-145.49;100.00;62790.56;4969716;28;20035;-74
2022/10/03 12:32:11;;;;;;;4.05;2.38;;;;;;;-145.49;100.00;62790.56;4989114;28;20050;-74
2022/10/03 12:35:06;;;;;;;5.60;3.08;;;;;;;-145.49;100.00;62790.56;4974637;28;20049;-74
2022/10/03 12:37:43;;;;;;;5.82;3.15;;;;;;;-145.49;100.00;62790.56;4981739;28;20050;-74
2022/10/03 12:40:24;;;;;;;4.88;2.85;;;;;;;-145.49;100.00;62790.56;4969516;28;20042;-74
2022/10/03 12:43:03;;;;;;;7.95;3.25;;;;;;;-145.49;100.00;62790.56;4979272;28;20045;-74
2022/10/03 12:45:39;;;;;;;4.47;4.03;;;;;;;-145.49;100.00;62790.56;4972415;28;20481;-74
2022/10/03 12:48:27;;;;;;;8.55;4.07;;;;;;;-145.49;100.00;62790.56;4974533;28;20043;-74
2022/10/03 12:51:04;;;;;;;6.55;3.22;;;;;;;-145.49;100.00;62790.56;4974339;28;20041;-74